sensor_id;sensor_type;location;lat;lon;timestamp;pressure;altitude;pressure_sealevel;temperature;humidity
9415;BME280;4746;35.664;139.738;2023-07-24T00:01:10;100294.41;;;34.40;44.18
9415;BME280;4746;35.664;139.738;2023-07-24T00:03:38;100288.88;;;34.53;43.93
9415;BME280;4746;35.664;139.738;2023-07-24T00:06:25;100292.78;;;34.67;43.95
9415;BME280;4746;35.664;139.738;2023-07-24T00:08:52;100286.66;;;34.76;43.45
9415;BME280;4746;35.664;139.738;2023-07-24T00:11:20;100291.41;;;34.82;43.02
9415;BME280;4746;35.664;139.738;2023-07-24T00:13:48;100285.09;;;34.83;43.39
9415;BME280;4746;35.664;139.738;2023-07-24T00:16:20;100287.47;;;34.96;43.31
9415;BME280;4746;35.664;139.738;2023-07-24T00:18:47;100287.63;;;34.94;43.91
9415;BME280;4746;35.664;139.738;2023-07-24T00:21:15;100290.56;;;34.91;44.21
9415;BME280;4746;35.664;139.738;2023-07-24T00:23:43;100290.28;;;34.85;43.98
9415;BME280;4746;35.664;139.738;2023-07-24T00:26:11;100283.69;;;34.89;44.12
9415;BME280;4746;35.664;139.738;2023-07-24T00:28:38;100285.78;;;34.85;45.28
9415;BME280;4746;35.664;139.738;2023-07-24T00:31:06;100284.81;;;34.86;45.13
9415;BME280;4746;35.664;139.738;2023-07-24T00:33:33;100290.72;;;34.90;44.97
9415;BME280;4746;35.664;139.738;2023-07-24T00:36:01;100287.47;;;34.86;46.06
9415;BME280;4746;35.664;139.738;2023-07-24T00:38:28;100280.75;;;34.82;45.90
9415;BME280;4746;35.664;139.738;2023-07-24T00:40:58;100279.66;;;34.94;46.05
9415;BME280;4746;35.664;139.738;2023-07-24T00:43:26;100277.66;;;34.96;45.57
9415;BME280;4746;35.664;139.738;2023-07-24T00:45:56;100279.06;;;34.91;46.33
9415;BME280;4746;35.664;139.738;2023-07-24T00:48:24;100278.22;;;34.90;46.84
9415;BME280;4746;35.664;139.738;2023-07-24T00:50:52;100278.50;;;34.97;46.61
9415;BME280;4746;35.664;139.738;2023-07-24T00:53:21;100284.16;;;35.03;47.09
9415;BME280;4746;35.664;139.738;2023-07-24T00:55:48;100266.72;;;35.18;46.84
9415;BME280;4746;35.664;139.738;2023-07-24T00:58:17;100283.41;;;35.20;46.45
9415;BME280;4746;35.664;139.738;2023-07-24T01:00:46;100279.22;;;35.18;45.67
9415;BME280;4746;35.664;139.738;2023-07-24T01:03:14;100285.25;;;35.10;46.18
9415;BME280;4746;35.664;139.738;2023-07-24T01:05:41;100269.53;;;35.07;46.65
9415;BME280;4746;35.664;139.738;2023-07-24T01:08:09;100258.47;;;35.02;46.87
9415;BME280;4746;35.664;139.738;2023-07-24T01:10:36;100265.03;;;34.98;47.03
9415;BME280;4746;35.664;139.738;2023-07-24T01:13:31;100254.97;;;35.21;46.81
9415;BME280;4746;35.664;139.738;2023-07-24T01:16:12;100260.81;;;35.24;46.33
9415;BME280;4746;35.664;139.738;2023-07-24T01:18:41;100257.63;;;35.21;46.16
9415;BME280;4746;35.664;139.738;2023-07-24T01:21:11;100257.06;;;35.27;45.99
9415;BME280;4746;35.664;139.738;2023-07-24T01:24:36;100266.53;;;35.38;45.66
9415;BME280;4746;35.664;139.738;2023-07-24T01:27:04;100262.91;;;35.30;44.79
9415;BME280;4746;35.664;139.738;2023-07-24T01:29:31;100260.69;;;35.35;45.13
9415;BME280;4746;35.664;139.738;2023-07-24T01:31:59;100258.41;;;35.40;44.75
9415;BME280;4746;35.664;139.738;2023-07-24T01:34:27;100252.53;;;35.46;44.15
9415;BME280;4746;35.664;139.738;2023-07-24T01:36:56;100258.97;;;35.53;44.00
9415;BME280;4746;35.664;139.738;2023-07-24T01:39:24;100250.41;;;35.59;42.93
9415;BME280;4746;35.664;139.738;2023-07-24T01:41:52;100248.94;;;35.64;42.39
9415;BME280;4746;35.664;139.738;2023-07-24T01:44:20;100240.53;;;35.69;42.45
9415;BME280;4746;35.664;139.738;2023-07-24T01:46:48;100243.84;;;35.71;42.73
9415;BME280;4746;35.664;139.738;2023-07-24T01:49:15;100244.44;;;35.65;42.85
9415;BME280;4746;35.664;139.738;2023-07-24T01:51:43;100240.78;;;35.66;43.40
9415;BME280;4746;35.664;139.738;2023-07-24T01:54:10;100245.94;;;35.77;43.17
9415;BME280;4746;35.664;139.738;2023-07-24T01:56:39;100235.38;;;35.85;43.45
9415;BME280;4746;35.664;139.738;2023-07-24T01:59:07;100240.44;;;35.88;43.34
9415;BME280;4746;35.664;139.738;2023-07-24T02:01:35;100242.25;;;35.87;43.15
9415;BME280;4746;35.664;139.738;2023-07-24T02:04:02;100232.88;;;35.83;43.37
9415;BME280;4746;35.664;139.738;2023-07-24T02:06:30;100232.28;;;35.89;42.92
9415;BME280;4746;35.664;139.738;2023-07-24T02:08:58;100229.03;;;35.95;43.12
9415;BME280;4746;35.664;139.738;2023-07-24T02:11:25;100225.25;;;35.98;43.00
9415;BME280;4746;35.664;139.738;2023-07-24T02:13:52;100213.69;;;35.97;42.49
9415;BME280;4746;35.664;139.738;2023-07-24T02:16:20;100217.38;;;35.96;42.31
9415;BME280;4746;35.664;139.738;2023-07-24T02:18:48;100212.59;;;36.00;41.74
9415;BME280;4746;35.664;139.738;2023-07-24T02:21:15;100214.56;;;35.98;41.58
9415;BME280;4746;35.664;139.738;2023-07-24T02:23:43;100224.25;;;35.99;41.40
9415;BME280;4746;35.664;139.738;2023-07-24T02:28:45;100210.59;;;36.02;40.94
9415;BME280;4746;35.664;139.738;2023-07-24T02:31:13;100204.97;;;36.05;40.59
9415;BME280;4746;35.664;139.738;2023-07-24T02:33:41;100213.38;;;36.09;40.03
9415;BME280;4746;35.664;139.738;2023-07-24T02:36:09;100208.31;;;36.07;39.70
9415;BME280;4746;35.664;139.738;2023-07-24T02:38:36;100200.31;;;36.07;39.92
9415;BME280;4746;35.664;139.738;2023-07-24T02:41:04;100205.34;;;36.09;39.78
9415;BME280;4746;35.664;139.738;2023-07-24T02:43:31;100198.72;;;36.13;39.58
9415;BME280;4746;35.664;139.738;2023-07-24T02:46:03;100192.88;;;36.27;39.44
9415;BME280;4746;35.664;139.738;2023-07-24T02:48:30;100204.53;;;36.26;39.55
9415;BME280;4746;35.664;139.738;2023-07-24T02:50:58;100199.72;;;36.30;39.72
9415;BME280;4746;35.664;139.738;2023-07-24T02:53:26;100207.31;;;36.34;39.92
9415;BME280;4746;35.664;139.738;2023-07-24T02:55:53;100199.69;;;36.39;39.08
9415;BME280;4746;35.664;139.738;2023-07-24T02:58:21;100196.56;;;36.44;39.12
9415;BME280;4746;35.664;139.738;2023-07-24T03:00:49;100182.66;;;36.58;38.88
9415;BME280;4746;35.664;139.738;2023-07-24T03:03:17;100187.56;;;36.62;38.36
9415;BME280;4746;35.664;139.738;2023-07-24T03:05:45;100187.59;;;36.70;38.32
9415;BME280;4746;35.664;139.738;2023-07-24T03:08:12;100196.03;;;36.75;37.73
9415;BME280;4746;35.664;139.738;2023-07-24T03:10:45;100180.81;;;36.76;36.02
9415;BME280;4746;35.664;139.738;2023-07-24T03:13:12;100202.50;;;36.73;36.13
9415;BME280;4746;35.664;139.738;2023-07-24T03:15:40;100188.22;;;36.81;36.05
9415;BME280;4746;35.664;139.738;2023-07-24T03:18:08;100188.84;;;36.93;34.77
9415;BME280;4746;35.664;139.738;2023-07-24T03:20:35;100180.34;;;36.97;35.32
9415;BME280;4746;35.664;139.738;2023-07-24T03:23:03;100175.94;;;37.14;35.25
9415;BME280;4746;35.664;139.738;2023-07-24T03:25:30;100178.25;;;37.09;35.27
9415;BME280;4746;35.664;139.738;2023-07-24T03:28:02;100179.66;;;37.21;34.88
9415;BME280;4746;35.664;139.738;2023-07-24T03:30:30;100161.47;;;37.50;33.90
9415;BME280;4746;35.664;139.738;2023-07-24T03:32:58;100169.84;;;37.54;33.95
9415;BME280;4746;35.664;139.738;2023-07-24T03:35:26;100163.50;;;37.63;33.69
9415;BME280;4746;35.664;139.738;2023-07-24T03:37:53;100159.75;;;37.74;33.97
9415;BME280;4746;35.664;139.738;2023-07-24T03:40:22;100165.13;;;37.90;34.39
9415;BME280;4746;35.664;139.738;2023-07-24T03:42:49;100165.50;;;37.95;33.36
9415;BME280;4746;35.664;139.738;2023-07-24T03:45:17;100160.50;;;38.00;33.62
9415;BME280;4746;35.664;139.738;2023-07-24T03:47:44;100155.81;;;38.10;33.71
9415;BME280;4746;35.664;139.738;2023-07-24T03:50:12;100157.22;;;38.22;33.02
9415;BME280;4746;35.664;139.738;2023-07-24T03:52:39;100160.91;;;38.28;32.42
9415;BME280;4746;35.664;139.738;2023-07-24T03:55:07;100156.22;;;38.38;31.30
9415;BME280;4746;35.664;139.738;2023-07-24T03:57:36;100157.75;;;38.49;30.65
9415;BME280;4746;35.664;139.738;2023-07-24T04:00:06;100153.72;;;38.53;29.83
9415;BME280;4746;35.664;139.738;2023-07-24T04:02:34;100163.31;;;38.63;30.58
9415;BME280;4746;35.664;139.738;2023-07-24T04:05:02;100176.06;;;38.77;31.05
9415;BME280;4746;35.664;139.738;2023-07-24T04:07:30;100167.47;;;38.82;29.58
9415;BME280;4746;35.664;139.738;2023-07-24T04:09:57;100148.06;;;38.80;30.33
9415;BME280;4746;35.664;139.738;2023-07-24T04:12:28;100145.69;;;38.93;30.15
9415;BME280;4746;35.664;139.738;2023-07-24T04:14:55;100147.03;;;39.12;30.27
9415;BME280;4746;35.664;139.738;2023-07-24T04:17:23;100144.28;;;39.28;29.90
9415;BME280;4746;35.664;139.738;2023-07-24T04:19:52;100138.38;;;39.41;28.25
9415;BME280;4746;35.664;139.738;2023-07-24T04:22:19;100155.31;;;39.49;27.87
9415;BME280;4746;35.664;139.738;2023-07-24T04:24:47;100164.88;;;39.52;27.87
9415;BME280;4746;35.664;139.738;2023-07-24T04:27:14;100146.97;;;39.44;27.76
9415;BME280;4746;35.664;139.738;2023-07-24T04:29:42;100134.50;;;39.51;28.01
9415;BME280;4746;35.664;139.738;2023-07-24T04:32:09;100136.25;;;39.74;27.50
9415;BME280;4746;35.664;139.738;2023-07-24T04:34:37;100142.63;;;40.04;26.59
9415;BME280;4746;35.664;139.738;2023-07-24T04:37:04;100135.69;;;40.17;26.49
9415;BME280;4746;35.664;139.738;2023-07-24T04:39:32;100151.47;;;40.43;25.21
9415;BME280;4746;35.664;139.738;2023-07-24T04:42:00;100146.00;;;40.50;25.60
9415;BME280;4746;35.664;139.738;2023-07-24T04:44:28;100137.53;;;40.61;25.31
9415;BME280;4746;35.664;139.738;2023-07-24T04:46:55;100133.78;;;40.70;25.68
9415;BME280;4746;35.664;139.738;2023-07-24T04:49:23;100133.53;;;40.80;26.43
9415;BME280;4746;35.664;139.738;2023-07-24T04:51:53;100151.97;;;40.97;25.87
9415;BME280;4746;35.664;139.738;2023-07-24T04:54:21;100138.47;;;41.05;25.60
9415;BME280;4746;35.664;139.738;2023-07-24T04:56:49;100135.56;;;41.07;24.87
9415;BME280;4746;35.664;139.738;2023-07-24T04:59:16;100134.31;;;41.17;23.75
9415;BME280;4746;35.664;139.738;2023-07-24T05:01:44;100114.56;;;41.24;24.35
9415;BME280;4746;35.664;139.738;2023-07-24T05:04:12;100141.44;;;41.39;24.67
9415;BME280;4746;35.664;139.738;2023-07-24T05:06:41;100158.63;;;41.38;24.17
9415;BME280;4746;35.664;139.738;2023-07-24T05:09:09;100154.72;;;41.26;23.78
9415;BME280;4746;35.664;139.738;2023-07-24T05:11:36;100145.00;;;41.25;24.64
9415;BME280;4746;35.664;139.738;2023-07-24T05:14:03;100129.59;;;41.19;23.62
9415;BME280;4746;35.664;139.738;2023-07-24T05:16:35;100132.56;;;41.24;23.53
9415;BME280;4746;35.664;139.738;2023-07-24T05:19:02;100134.25;;;41.25;24.17
9415;BME280;4746;35.664;139.738;2023-07-24T05:21:30;100120.13;;;41.37;24.35
9415;BME280;4746;35.664;139.738;2023-07-24T05:23:57;100125.91;;;41.49;25.01
9415;BME280;4746;35.664;139.738;2023-07-24T05:26:25;100132.75;;;41.37;24.72
9415;BME280;4746;35.664;139.738;2023-07-24T05:28:53;100131.06;;;41.36;24.93
9415;BME280;4746;35.664;139.738;2023-07-24T05:31:21;100124.47;;;41.38;24.68
9415;BME280;4746;35.664;139.738;2023-07-24T05:33:49;100111.22;;;41.37;24.93
9415;BME280;4746;35.664;139.738;2023-07-24T05:36:16;100107.59;;;41.44;24.69
9415;BME280;4746;35.664;139.738;2023-07-24T05:38:47;100115.28;;;41.62;24.89
9415;BME280;4746;35.664;139.738;2023-07-24T05:41:21;100138.66;;;41.76;25.07
9415;BME280;4746;35.664;139.738;2023-07-24T05:43:49;100116.59;;;41.66;25.19
9415;BME280;4746;35.664;139.738;2023-07-24T05:46:19;100110.72;;;41.77;24.19
9415;BME280;4746;35.664;139.738;2023-07-24T05:48:46;100110.91;;;42.10;23.95
9415;BME280;4746;35.664;139.738;2023-07-24T05:51:14;100111.53;;;42.75;23.61
9415;BME280;4746;35.664;139.738;2023-07-24T05:53:41;100091.59;;;43.37;23.34
9415;BME280;4746;35.664;139.738;2023-07-24T05:56:09;100107.97;;;43.76;23.33
9415;BME280;4746;35.664;139.738;2023-07-24T05:58:36;100112.03;;;43.99;22.77
9415;BME280;4746;35.664;139.738;2023-07-24T06:01:06;100092.91;;;44.07;22.17
9415;BME280;4746;35.664;139.738;2023-07-24T06:03:37;100114.16;;;44.36;22.27
9415;BME280;4746;35.664;139.738;2023-07-24T06:06:05;100094.22;;;44.50;22.59
9415;BME280;4746;35.664;139.738;2023-07-24T06:08:33;100096.53;;;44.72;22.46
9415;BME280;4746;35.664;139.738;2023-07-24T06:11:00;100086.59;;;45.29;22.28
9415;BME280;4746;35.664;139.738;2023-07-24T06:13:28;100119.69;;;45.51;21.75
9415;BME280;4746;35.664;139.738;2023-07-24T06:15:56;100124.28;;;45.50;21.78
9415;BME280;4746;35.664;139.738;2023-07-24T06:18:23;100095.16;;;45.39;22.04
9415;BME280;4746;35.664;139.738;2023-07-24T06:20:54;100131.75;;;45.61;22.49
9415;BME280;4746;35.664;139.738;2023-07-24T06:23:21;100121.47;;;44.87;23.74
9415;BME280;4746;35.664;139.738;2023-07-24T06:25:49;100114.84;;;44.57;23.74
9415;BME280;4746;35.664;139.738;2023-07-24T06:28:18;100098.94;;;45.25;22.92
9415;BME280;4746;35.664;139.738;2023-07-24T06:30:46;100116.81;;;47.24;21.25
9415;BME280;4746;35.664;139.738;2023-07-24T06:33:14;100095.06;;;49.05;19.66
9415;BME280;4746;35.664;139.738;2023-07-24T06:35:41;100095.53;;;50.31;18.87
9415;BME280;4746;35.664;139.738;2023-07-24T06:38:09;100084.88;;;51.38;18.01
9415;BME280;4746;35.664;139.738;2023-07-24T06:40:36;100075.13;;;52.52;17.28
9415;BME280;4746;35.664;139.738;2023-07-24T06:43:03;100089.72;;;53.45;16.72
9415;BME280;4746;35.664;139.738;2023-07-24T06:45:31;100089.34;;;54.12;16.08
9415;BME280;4746;35.664;139.738;2023-07-24T06:47:58;100105.25;;;54.85;15.32
9415;BME280;4746;35.664;139.738;2023-07-24T06:50:26;100091.50;;;54.95;15.19
9415;BME280;4746;35.664;139.738;2023-07-24T06:52:53;100072.63;;;55.51;15.30
9415;BME280;4746;35.664;139.738;2023-07-24T06:55:21;100105.22;;;56.21;14.79
9415;BME280;4746;35.664;139.738;2023-07-24T06:57:49;100075.53;;;55.70;14.61
9415;BME280;4746;35.664;139.738;2023-07-24T07:00:16;100072.22;;;55.78;15.74
9415;BME280;4746;35.664;139.738;2023-07-24T07:02:44;100083.13;;;56.59;15.02
9415;BME280;4746;35.664;139.738;2023-07-24T07:05:11;100063.19;;;57.19;14.09
9415;BME280;4746;35.664;139.738;2023-07-24T07:07:39;100075.94;;;57.57;14.32
9415;BME280;4746;35.664;139.738;2023-07-24T07:10:07;100075.88;;;57.62;14.15
9415;BME280;4746;35.664;139.738;2023-07-24T07:12:38;100086.03;;;57.66;14.28
9415;BME280;4746;35.664;139.738;2023-07-24T07:15:07;100089.91;;;57.65;14.46
9415;BME280;4746;35.664;139.738;2023-07-24T07:17:34;100078.69;;;57.38;14.50
9415;BME280;4746;35.664;139.738;2023-07-24T07:20:02;100079.91;;;57.04;14.73
9415;BME280;4746;35.664;139.738;2023-07-24T07:22:29;100077.47;;;57.21;14.74
9415;BME280;4746;35.664;139.738;2023-07-24T07:24:57;100084.34;;;57.47;14.69
9415;BME280;4746;35.664;139.738;2023-07-24T07:27:24;100088.56;;;57.99;13.88
9415;BME280;4746;35.664;139.738;2023-07-24T07:29:52;100088.06;;;58.47;13.66
9415;BME280;4746;35.664;139.738;2023-07-24T07:32:19;100089.69;;;58.48;13.66
9415;BME280;4746;35.664;139.738;2023-07-24T07:34:47;100101.88;;;58.79;13.58
9415;BME280;4746;35.664;139.738;2023-07-24T07:37:15;100113.66;;;58.53;13.60
9415;BME280;4746;35.664;139.738;2023-07-24T07:39:42;100096.28;;;57.19;14.68
9415;BME280;4746;35.664;139.738;2023-07-24T07:42:10;100087.50;;;56.88;15.09
9415;BME280;4746;35.664;139.738;2023-07-24T07:44:37;100080.06;;;57.12;14.25
9415;BME280;4746;35.664;139.738;2023-07-24T07:47:05;100085.34;;;57.56;14.41
9415;BME280;4746;35.664;139.738;2023-07-24T07:49:33;100093.66;;;57.92;13.91
9415;BME280;4746;35.664;139.738;2023-07-24T07:52:00;100093.50;;;57.84;14.26
9415;BME280;4746;35.664;139.738;2023-07-24T07:54:27;100086.75;;;58.08;14.19
9415;BME280;4746;35.664;139.738;2023-07-24T07:56:58;100096.16;;;58.26;14.17
9415;BME280;4746;35.664;139.738;2023-07-24T07:59:25;100097.03;;;58.40;14.14
9415;BME280;4746;35.664;139.738;2023-07-24T08:01:53;100103.09;;;58.55;14.29
9415;BME280;4746;35.664;139.738;2023-07-24T08:04:20;100095.94;;;58.22;14.17
9415;BME280;4746;35.664;139.738;2023-07-24T08:06:48;100090.63;;;58.26;14.44
9415;BME280;4746;35.664;139.738;2023-07-24T08:09:15;100099.59;;;58.18;13.80
9415;BME280;4746;35.664;139.738;2023-07-24T08:11:44;100084.56;;;57.92;14.55
9415;BME280;4746;35.664;139.738;2023-07-24T08:14:11;100085.56;;;57.77;14.46
9415;BME280;4746;35.664;139.738;2023-07-24T08:16:39;100088.31;;;57.59;14.71
9415;BME280;4746;35.664;139.738;2023-07-24T08:19:06;100088.63;;;57.58;15.07
9415;BME280;4746;35.664;139.738;2023-07-24T08:21:34;100087.69;;;57.44;14.81
9415;BME280;4746;35.664;139.738;2023-07-24T08:24:02;100088.97;;;57.09;15.08
9415;BME280;4746;35.664;139.738;2023-07-24T08:26:29;100100.00;;;56.53;15.64
9415;BME280;4746;35.664;139.738;2023-07-24T08:28:57;100080.25;;;56.03;15.71
9415;BME280;4746;35.664;139.738;2023-07-24T08:31:24;100085.72;;;55.69;15.80
9415;BME280;4746;35.664;139.738;2023-07-24T08:33:52;100077.59;;;55.44;16.42
9415;BME280;4746;35.664;139.738;2023-07-24T08:36:21;100091.97;;;55.32;16.66
9415;BME280;4746;35.664;139.738;2023-07-24T08:38:48;100087.56;;;55.31;16.51
9415;BME280;4746;35.664;139.738;2023-07-24T08:41:16;100084.31;;;55.19;16.21
9415;BME280;4746;35.664;139.738;2023-07-24T08:43:44;100096.22;;;54.89;16.75
9415;BME280;4746;35.664;139.738;2023-07-24T08:46:12;100102.81;;;54.83;17.10
9415;BME280;4746;35.664;139.738;2023-07-24T08:48:42;100092.09;;;54.42;17.30
9415;BME280;4746;35.664;139.738;2023-07-24T08:51:17;100092.63;;;54.09;17.92
9415;BME280;4746;35.664;139.738;2023-07-24T08:53:49;100087.59;;;53.72;18.31
9415;BME280;4746;35.664;139.738;2023-07-24T08:56:17;100105.44;;;53.13;18.60
9415;BME280;4746;35.664;139.738;2023-07-24T08:58:44;100113.41;;;52.42;18.63
9415;BME280;4746;35.664;139.738;2023-07-24T09:01:12;100089.75;;;52.05;19.72
9415;BME280;4746;35.664;139.738;2023-07-24T09:03:41;100111.03;;;51.76;19.94
9415;BME280;4746;35.664;139.738;2023-07-24T09:06:09;100096.00;;;51.31;20.45
9415;BME280;4746;35.664;139.738;2023-07-24T09:08:41;100104.38;;;50.71;21.10
9415;BME280;4746;35.664;139.738;2023-07-24T09:11:13;100112.47;;;50.05;21.92
9415;BME280;4746;35.664;139.738;2023-07-24T09:13:44;100120.91;;;48.68;22.66
9415;BME280;4746;35.664;139.738;2023-07-24T09:16:27;100106.56;;;46.59;24.70
9415;BME280;4746;35.664;139.738;2023-07-24T09:18:55;100108.59;;;44.70;27.56
9415;BME280;4746;35.664;139.738;2023-07-24T09:21:33;100111.63;;;43.15;29.77
9415;BME280;4746;35.664;139.738;2023-07-24T09:24:15;100126.59;;;41.72;31.49
9415;BME280;4746;35.664;139.738;2023-07-24T09:26:53;100111.94;;;40.88;32.99
9415;BME280;4746;35.664;139.738;2023-07-24T09:29:20;100129.81;;;40.14;34.51
9415;BME280;4746;35.664;139.738;2023-07-24T09:31:48;100131.16;;;39.41;35.64
9415;BME280;4746;35.664;139.738;2023-07-24T09:34:18;100138.69;;;38.68;36.97
9415;BME280;4746;35.664;139.738;2023-07-24T09:36:46;100147.63;;;38.11;37.98
9415;BME280;4746;35.664;139.738;2023-07-24T09:39:14;100134.38;;;37.53;39.25
9415;BME280;4746;35.664;139.738;2023-07-24T09:41:41;100135.16;;;37.12;40.45
9415;BME280;4746;35.664;139.738;2023-07-24T09:44:12;100143.41;;;36.76;41.49
9415;BME280;4746;35.664;139.738;2023-07-24T09:46:40;100143.88;;;36.36;42.81
9415;BME280;4746;35.664;139.738;2023-07-24T09:49:09;100141.75;;;36.05;43.68
9415;BME280;4746;35.664;139.738;2023-07-24T09:51:37;100144.72;;;35.75;43.74
9415;BME280;4746;35.664;139.738;2023-07-24T09:56:43;100141.31;;;35.20;45.04
9415;BME280;4746;35.664;139.738;2023-07-24T09:59:13;100152.84;;;35.01;45.57
9415;BME280;4746;35.664;139.738;2023-07-24T10:01:41;100148.81;;;34.78;46.24
9415;BME280;4746;35.664;139.738;2023-07-24T10:04:10;100161.88;;;34.63;46.59
9415;BME280;4746;35.664;139.738;2023-07-24T10:06:38;100164.25;;;34.47;47.72
9415;BME280;4746;35.664;139.738;2023-07-24T10:09:07;100163.13;;;34.40;47.59
9415;BME280;4746;35.664;139.738;2023-07-24T10:11:35;100163.94;;;34.31;47.65
9415;BME280;4746;35.664;139.738;2023-07-24T10:14:02;100166.75;;;34.20;47.98
9415;BME280;4746;35.664;139.738;2023-07-24T10:16:30;100167.75;;;34.09;48.34
9415;BME280;4746;35.664;139.738;2023-07-24T10:18:58;100170.34;;;34.00;49.03
9415;BME280;4746;35.664;139.738;2023-07-24T10:21:28;100162.31;;;33.81;49.75
9415;BME280;4746;35.664;139.738;2023-07-24T10:24:00;100159.25;;;33.76;49.39
9415;BME280;4746;35.664;139.738;2023-07-24T10:26:28;100174.03;;;33.69;49.84
9415;BME280;4746;35.664;139.738;2023-07-24T10:28:56;100177.09;;;33.65;50.25
9415;BME280;4746;35.664;139.738;2023-07-24T10:31:26;100172.91;;;33.62;50.12
9415;BME280;4746;35.664;139.738;2023-07-24T10:33:55;100195.56;;;33.57;50.24
9415;BME280;4746;35.664;139.738;2023-07-24T10:36:35;100175.63;;;33.51;50.31
9415;BME280;4746;35.664;139.738;2023-07-24T10:39:13;100179.53;;;33.47;50.77
9415;BME280;4746;35.664;139.738;2023-07-24T10:41:42;100185.63;;;33.38;51.05
9415;BME280;4746;35.664;139.738;2023-07-24T10:44:11;100183.78;;;33.29;51.21
9415;BME280;4746;35.664;139.738;2023-07-24T10:46:43;100193.69;;;33.27;51.64
9415;BME280;4746;35.664;139.738;2023-07-24T10:49:11;100206.53;;;33.22;51.69
9415;BME280;4746;35.664;139.738;2023-07-24T10:51:39;100207.06;;;33.17;52.13
9415;BME280;4746;35.664;139.738;2023-07-24T10:54:06;100219.06;;;33.11;52.40
9415;BME280;4746;35.664;139.738;2023-07-24T10:56:37;100215.13;;;33.06;52.61
9415;BME280;4746;35.664;139.738;2023-07-24T10:59:05;100217.28;;;33.01;52.40
9415;BME280;4746;35.664;139.738;2023-07-24T11:01:34;100226.44;;;33.08;52.68
9415;BME280;4746;35.664;139.738;2023-07-24T11:04:02;100229.94;;;33.08;52.36
9415;BME280;4746;35.664;139.738;2023-07-24T11:06:30;100230.44;;;33.02;52.89
9415;BME280;4746;35.664;139.738;2023-07-24T11:08:59;100250.13;;;33.00;52.42
9415;BME280;4746;35.664;139.738;2023-07-24T11:11:35;100233.03;;;32.93;52.61
9415;BME280;4746;35.664;139.738;2023-07-24T11:14:03;100229.06;;;32.87;53.24
9415;BME280;4746;35.664;139.738;2023-07-24T11:16:31;100236.47;;;32.84;53.58
9415;BME280;4746;35.664;139.738;2023-07-24T11:19:00;100233.84;;;32.73;53.50
9415;BME280;4746;35.664;139.738;2023-07-24T11:21:28;100243.38;;;32.75;54.20
9415;BME280;4746;35.664;139.738;2023-07-24T11:23:57;100248.28;;;32.80;54.10
9415;BME280;4746;35.664;139.738;2023-07-24T11:26:26;100262.53;;;32.79;53.76
9415;BME280;4746;35.664;139.738;2023-07-24T11:28:55;100257.03;;;32.71;53.78
9415;BME280;4746;35.664;139.738;2023-07-24T11:31:22;100250.78;;;32.61;54.91
9415;BME280;4746;35.664;139.738;2023-07-24T11:33:52;100253.56;;;32.59;54.84
9415;BME280;4746;35.664;139.738;2023-07-24T11:36:21;100261.66;;;32.58;54.69
9415;BME280;4746;35.664;139.738;2023-07-24T11:38:50;100259.25;;;32.55;54.93
9415;BME280;4746;35.664;139.738;2023-07-24T11:41:21;100266.16;;;32.57;54.86
9415;BME280;4746;35.664;139.738;2023-07-24T11:43:50;100268.91;;;32.56;55.28
9415;BME280;4746;35.664;139.738;2023-07-24T11:46:29;100275.91;;;32.57;54.78
9415;BME280;4746;35.664;139.738;2023-07-24T11:48:58;100274.94;;;32.47;55.22
9415;BME280;4746;35.664;139.738;2023-07-24T11:51:27;100277.72;;;32.45;55.25
9415;BME280;4746;35.664;139.738;2023-07-24T11:54:08;100269.75;;;32.45;54.66
9415;BME280;4746;35.664;139.738;2023-07-24T11:56:36;100272.66;;;32.42;55.29
9415;BME280;4746;35.664;139.738;2023-07-24T11:59:15;100270.38;;;32.49;54.81
9415;BME280;4746;35.664;139.738;2023-07-24T12:01:49;100281.22;;;32.46;54.83
9415;BME280;4746;35.664;139.738;2023-07-24T12:04:18;100294.97;;;32.40;55.68
9415;BME280;4746;35.664;139.738;2023-07-24T12:06:46;100291.59;;;32.38;55.50
9415;BME280;4746;35.664;139.738;2023-07-24T12:09:15;100294.75;;;32.32;55.31
9415;BME280;4746;35.664;139.738;2023-07-24T12:11:44;100289.72;;;32.18;56.07
9415;BME280;4746;35.664;139.738;2023-07-24T12:14:14;100295.88;;;32.08;55.83
9415;BME280;4746;35.664;139.738;2023-07-24T12:16:42;100291.97;;;32.01;56.28
9415;BME280;4746;35.664;139.738;2023-07-24T12:19:10;100279.94;;;31.97;56.57
9415;BME280;4746;35.664;139.738;2023-07-24T12:21:39;100298.16;;;32.01;56.41
9415;BME280;4746;35.664;139.738;2023-07-24T12:24:06;100282.59;;;31.97;56.61
9415;BME280;4746;35.664;139.738;2023-07-24T12:26:34;100280.78;;;31.97;57.08
9415;BME280;4746;35.664;139.738;2023-07-24T12:29:01;100279.13;;;31.96;57.10
9415;BME280;4746;35.664;139.738;2023-07-24T12:31:29;100272.13;;;31.95;57.20
9415;BME280;4746;35.664;139.738;2023-07-24T12:33:57;100272.81;;;31.97;56.97
9415;BME280;4746;35.664;139.738;2023-07-24T12:36:25;100282.47;;;31.98;57.17
9415;BME280;4746;35.664;139.738;2023-07-24T12:38:53;100281.63;;;31.98;57.26
9415;BME280;4746;35.664;139.738;2023-07-24T12:41:20;100281.66;;;32.09;56.81
9415;BME280;4746;35.664;139.738;2023-07-24T12:43:48;100297.56;;;32.09;56.80
9415;BME280;4746;35.664;139.738;2023-07-24T12:46:16;100300.34;;;32.07;57.23
9415;BME280;4746;35.664;139.738;2023-07-24T12:48:43;100299.09;;;32.00;56.79
9415;BME280;4746;35.664;139.738;2023-07-24T12:51:11;100299.72;;;31.93;57.57
9415;BME280;4746;35.664;139.738;2023-07-24T12:53:38;100290.91;;;31.92;57.84
9415;BME280;4746;35.664;139.738;2023-07-24T12:56:06;100303.69;;;31.98;57.60
9415;BME280;4746;35.664;139.738;2023-07-24T12:58:33;100307.06;;;32.00;57.63
9415;BME280;4746;35.664;139.738;2023-07-24T13:01:01;100306.00;;;32.03;57.12
9415;BME280;4746;35.664;139.738;2023-07-24T13:03:29;100296.47;;;32.00;57.57